Wetterdaten: Woche 03.09.12 - 09.09.12 (KW36)
Datum Zeit Temp. A. Feuchte A. Luftdruck Regen Wind Richtung Taupunkt Windchill Windben
03.09.2012 00:00 17,0 C 81 % 1020,9 hPa 0,0 l/m 0,1 km/h N 13,7 C 17,0 C 0,8 km/h
03.09.2012 01:00 17,3 C 79 % 1021,0 hPa 0,0 l/m 0,7 km/h N 13,5 C 17,3 C 5,6 km/h
03.09.2012 02:00 17,7 C 80 % 1021,0 hPa 0,0 l/m 4,4 km/h N 14,1 C 17,7 C 14,5 km/h
03.09.2012 03:00 17,5 C 81 % 1021,2 hPa 0,0 l/m 0,8 km/h N 14,2 C 17,5 C 6,0 km/h
03.09.2012 04:00 17,4 C 81 % 1021,2 hPa 0,0 l/m 1,3 km/h N 14,1 C 17,4 C 7,2 km/h
03.09.2012 05:00 17,3 C 82 % 1021,0 hPa 0,0 l/m 0,2 km/h N 14,1 C 17,3 C 3,6 km/h
03.09.2012 06:00 17,5 C 81 % 1021,1 hPa 0,0 l/m 0,2 km/h N 14,2 C 17,5 C 3,2 km/h
03.09.2012 07:00 18,0 C 82 % 1021,2 hPa 0,0 l/m 1,5 km/h N 14,9 C 18,0 C 9,2 km/h
03.09.2012 08:00 19,0 C 82 % 1021,4 hPa 0,0 l/m 5,2 km/h N 15,9 C 19,0 C 16,9 km/h
03.09.2012 09:00 20,0 C 81 % 1021,3 hPa 0,0 l/m 6,4 km/h N 16,7 C 19,9 C 17,7 km/h
03.09.2012 10:00 20,8 C 79 % 1021,2 hPa 0,0 l/m 5,4 km/h N 16,9 C 20,8 C 14,5 km/h
03.09.2012 11:00 21,5 C 76 % 1021,0 hPa 0,0 l/m 4,3 km/h N 17,0 C 21,5 C 12,1 km/h
03.09.2012 12:00 22,4 C 72 % 1020,7 hPa 0,0 l/m 5,7 km/h N 17,0 C 22,4 C 14,5 km/h
03.09.2012 13:00 23,0 C 70 % 1020,2 hPa 0,0 l/m 5,1 km/h N 17,3 C 23,0 C 17,3 km/h
03.09.2012 14:00 23,7 C 68 % 1019,7 hPa 0,0 l/m 5,3 km/h N 17,4 C 23,6 C 13,3 km/h
03.09.2012 15:00 23,7 C 67 % 1019,2 hPa 0,0 l/m 6,1 km/h N 17,2 C 23,6 C 16,5 km/h
03.09.2012 16:00 23,7 C 68 % 1018,8 hPa 0,0 l/m 4,8 km/h N 17,5 C 23,7 C 15,7 km/h
03.09.2012 17:00 23,6 C 68 % 1018,4 hPa 0,0 l/m 4,5 km/h N 17,2 C 23,6 C 14,1 km/h
03.09.2012 18:00 23,3 C 69 % 1018,0 hPa 0,0 l/m 2,3 km/h N 17,3 C 23,3 C 8,1 km/h
03.09.2012 19:00 22,0 C 74 % 1018,0 hPa 0,0 l/m 0,9 km/h N 17,0 C 22,0 C 5,2 km/h
03.09.2012 20:00 20,6 C 77 % 1018,4 hPa 0,0 l/m 0,0 km/h N 16,3 C 20,6 C 0,8 km/h
03.09.2012 21:00 19,1 C 81 % 1018,8 hPa 0,0 l/m 0,0 km/h N 15,7 C 19,1 C 1,2 km/h
03.09.2012 22:00 19,2 C 82 % 1019,0 hPa 0,0 l/m 1,6 km/h N 16,0 C 19,2 C 6,4 km/h
03.09.2012 23:00 19,3 C 81 % 1019,0 hPa 0,0 l/m 2,6 km/h N 15,9 C 19,3 C 8,0 km/h
04.09.2012 00:00 19,1 C 79 % 1019,1 hPa 0,0 l/m 3,2 km/h N 15,4 C 19,1 C 10,1 km/h
04.09.2012 01:00 18,8 C 79 % 1019,2 hPa 0,0 l/m 4,5 km/h N 15,1 C 18,8 C 13,3 km/h
04.09.2012 02:00 18,5 C 79 % 1019,1 hPa 0,0 l/m 3,2 km/h N 14,8 C 18,5 C 10,1 km/h
04.09.2012 03:00 17,9 C 80 % 1018,8 hPa 0,0 l/m 4,3 km/h N 14,4 C 17,9 C 11,7 km/h
04.09.2012 04:00 17,6 C 81 % 1018,6 hPa 0,0 l/m 3,3 km/h N 14,3 C 17,6 C 10,9 km/h
04.09.2012 05:00 17,5 C 81 % 1018,4 hPa 0,0 l/m 3,8 km/h N 14,1 C 17,5 C 11,7 km/h
04.09.2012 06:00 17,5 C 80 % 1018,4 hPa 0,0 l/m 4,7 km/h N 14,0 C 17,4 C 14,9 km/h
04.09.2012 07:00 17,6 C 80 % 1018,6 hPa 0,0 l/m 3,9 km/h N 14,1 C 17,5 C 12,5 km/h
04.09.2012 08:00 18,2 C 79 % 1018,7 hPa 0,0 l/m 6,8 km/h N 14,5 C 17,9 C 17,3 km/h
04.09.2012 09:00 18,9 C 76 % 1018,8 hPa 0,0 l/m 7,9 km/h N 14,6 C 18,2 C 20,1 km/h
04.09.2012 10:00 19,5 C 75 % 1018,9 hPa 0,0 l/m 6,8 km/h N 15,0 C 19,3 C 17,7 km/h
04.09.2012 11:00 20,6 C 73 % 1018,7 hPa 0,0 l/m 8,6 km/h N 15,7 C 19,8 C 18,9 km/h
04.09.2012 12:00 21,5 C 72 % 1018,4 hPa 0,0 l/m 8,3 km/h N 16,1 C 20,8 C 21,7 km/h
04.09.2012 13:00 22,0 C 69 % 1018,2 hPa 0,0 l/m 7,8 km/h N 16,0 C 21,5 C 20,5 km/h
04.09.2012 14:00 22,3 C 69 % 1018,0 hPa 0,0 l/m 6,9 km/h N 16,2 C 22,1 C 18,5 km/h
04.09.2012 15:00 23,0 C 68 % 1017,7 hPa 0,0 l/m 5,9 km/h N 16,8 C 22,8 C 16,1 km/h
04.09.2012 16:00 23,5 C 67 % 1017,1 hPa 0,0 l/m 6,4 km/h N 17,1 C 23,5 C 17,3 km/h
04.09.2012 17:00 23,9 C 67 % 1016,6 hPa 0,0 l/m 6,0 km/h N 17,3 C 23,8 C 16,5 km/h
04.09.2012 18:00 23,5 C 68 % 1016,3 hPa 0,0 l/m 4,5 km/h N 17,2 C 23,5 C 11,7 km/h
04.09.2012 19:00 22,5 C 69 % 1016,4 hPa 0,0 l/m 3,0 km/h N 16,5 C 22,5 C 8,9 km/h
04.09.2012 20:00 21,3 C 73 % 1016,9 hPa 0,0 l/m 0,8 km/h N 16,1 C 21,3 C 5,6 km/h
04.09.2012 21:00 19,8 C 77 % 1017,3 hPa 0,0 l/m 0,0 km/h N 15,5 C 19,8 C 0,4 km/h
04.09.2012 22:00 18,6 C 80 % 1017,6 hPa 0,0 l/m 0,0 km/h N 15,2 C 18,6 C 0,0 km/h
04.09.2012 23:00 18,3 C 82 % 1017,8 hPa 0,0 l/m 0,3 km/h N 15,2 C 18,3 C 3,2 km/h
05.09.2012 00:00 18,9 C 81 % 1017,6 hPa 0,0 l/m 0,9 km/h N 15,5 C 18,9 C 5,6 km/h
05.09.2012 01:00 18,6 C 79 % 1017,5 hPa 0,0 l/m 1,1 km/h N 14,8 C 18,6 C 5,6 km/h
05.09.2012 02:00 18,3 C 78 % 1017,3 hPa 0,0 l/m 0,8 km/h N 14,4 C 18,3 C 5,2 km/h
05.09.2012 03:00 18,3 C 78 % 1017,1 hPa 0,0 l/m 0,8 km/h N 14,4 C 18,3 C 5,2 km/h
05.09.2012 04:00 17,8 C 79 % 1016,9 hPa 0,0 l/m 0,3 km/h N 14,1 C 17,8 C 3,6 km/h
05.09.2012 05:00 17,0 C 79 % 1016,7 hPa 0,0 l/m 0,0 km/h N 13,4 C 17,0 C 0,0 km/h
05.09.2012 06:00 16,2 C 81 % 1016,8 hPa 0,0 l/m 0,0 km/h N 13,0 C 16,2 C 0,4 km/h
05.09.2012 07:00 16,5 C 82 % 1017,0 hPa 0,0 l/m 0,3 km/h N 13,4 C 16,5 C 2,8 km/h
05.09.2012 08:00 18,2 C 78 % 1017,1 hPa 0,0 l/m 3,6 km/h N 14,2 C 18,2 C 12,1 km/h
05.09.2012 09:00 19,5 C 73 % 1017,2 hPa 0,0 l/m 4,1 km/h N 14,6 C 19,5 C 12,9 km/h
05.09.2012 10:00 21,3 C 69 % 1017,0 hPa 0,0 l/m 4,6 km/h N 15,4 C 21,3 C 12,1 km/h
05.09.2012 11:00 22,9 C 64 % 1016,7 hPa 0,0 l/m 4,7 km/h N 15,6 C 22,9 C 13,7 km/h
05.09.2012 12:00 24,0 C 60 % 1016,2 hPa 0,0 l/m 4,6 km/h N 15,8 C 24,0 C 13,7 km/h
05.09.2012 13:00 25,0 C 57 % 1015,7 hPa 0,0 l/m 3,6 km/h N 15,7 C 25,0 C 10,9 km/h
05.09.2012 14:00 25,6 C 55 % 1015,1 hPa 0,0 l/m 3,1 km/h N 15,8 C 25,6 C 12,1 km/h
05.09.2012 15:00 25,5 C 56 % 1014,5 hPa 0,0 l/m 3,3 km/h N 16,1 C 25,5 C 12,5 km/h
05.09.2012 16:00 25,7 C 55 % 1014,1 hPa 0,0 l/m 3,8 km/h N 15,8 C 25,7 C 11,3 km/h
05.09.2012 17:00 25,5 C 55 % 1014,0 hPa 0,0 l/m 2,8 km/h N 15,8 C 25,5 C 10,4 km/h
05.09.2012 18:00 24,3 C 59 % 1014,0 hPa 0,0 l/m 0,8 km/h N 15,9 C 24,3 C 5,2 km/h
05.09.2012 19:00 22,6 C 66 % 1014,2 hPa 0,0 l/m 0,0 km/h N 15,9 C 22,6 C 0,4 km/h
05.09.2012 20:00 20,9 C 72 % 1014,9 hPa 0,0 l/m 0,0 km/h N 15,7 C 20,9 C 0,4 km/h
05.09.2012 21:00 20,9 C 70 % 1015,4 hPa 0,0 l/m 3,5 km/h N 15,2 C 20,9 C 12,1 km/h
05.09.2012 22:00 21,2 C 65 % 1015,8 hPa 0,0 l/m 7,4 km/h N 14,4 C 20,7 C 18,5 km/h
05.09.2012 23:00 20,8 C 69 % 1016,0 hPa 0,0 l/m 7,2 km/h N 14,8 C 20,4 C 20,9 km/h
06.09.2012 00:00 20,2 C 72 % 1016,5 hPa 0,0 l/m 6,7 km/h N 15,0 C 19,9 C 21,3 km/h
06.09.2012 01:00 19,6 C 73 % 1016,5 hPa 0,0 l/m 7,0 km/h N 14,7 C 19,3 C 19,3 km/h
06.09.2012 02:00 19,1 C 74 % 1016,4 hPa 0,0 l/m 7,4 km/h N 14,4 C 18,7 C 21,7 km/h
06.09.2012 03:00 18,6 C 76 % 1016,7 hPa 0,0 l/m 5,9 km/h N 14,3 C 18,5 C 18,5 km/h
06.09.2012 04:00 18,3 C 78 % 1017,2 hPa 0,0 l/m 5,6 km/h N 14,3 C 18,2 C 16,5 km/h
06.09.2012 05:00 18,0 C 78 % 1017,5 hPa 0,0 l/m 6,2 km/h N 14,1 C 17,8 C 17,7 km/h
06.09.2012 06:00 17,6 C 79 % 1017,9 hPa 0,0 l/m 5,5 km/h N 14,0 C 17,6 C 16,5 km/h
06.09.2012 07:00 17,7 C 79 % 1018,5 hPa 0,0 l/m 7,4 km/h N 13,9 C 17,2 C 20,9 km/h
06.09.2012 08:00 17,7 C 77 % 1019,3 hPa 0,0 l/m 7,5 km/h N 13,6 C 17,2 C 18,5 km/h
06.09.2012 09:00 17,4 C 76 % 1020,1 hPa 0,0 l/m 9,5 km/h N 13,2 C 16,0 C 20,1 km/h
06.09.2012 10:00 17,3 C 74 % 1020,9 hPa 0,0 l/m 9,8 km/h N 12,5 C 15,7 C 23,3 km/h
06.09.2012 11:00 17,0 C 75 % 1021,3 hPa 0,0 l/m 9,0 km/h N 12,5 C 15,8 C 20,9 km/h
06.09.2012 12:00 18,0 C 70 % 1021,6 hPa 0,0 l/m 9,6 km/h N 12,5 C 16,6 C 21,3 km/h
06.09.2012 13:00 18,9 C 65 % 1021,9 hPa 0,0 l/m 11,1 km/h N 12,0 C 17,0 C 26,6 km/h
06.09.2012 14:00 19,0 C 63 % 1022,1 hPa 0,0 l/m 10,5 km/h N 11,8 C 17,4 C 24,1 km/h
06.09.2012 15:00 18,8 C 62 % 1022,2 hPa 0,0 l/m 9,7 km/h N 11,4 C 17,5 C 24,1 km/h
06.09.2012 16:00 18,9 C 62 % 1022,0 hPa 0,0 l/m 12,1 km/h N 11,4 C 16,7 C 27,4 km/h
06.09.2012 17:00 18,6 C 65 % 1022,1 hPa 0,0 l/m 10,1 km/h N 11,9 C 17,1 C 24,5 km/h
06.09.2012 18:00 18,0 C 60 % 1022,4 hPa 0,0 l/m 6,8 km/h N 10,1 C 17,7 C 21,3 km/h
06.09.2012 19:00 17,0 C 60 % 1023,1 hPa 0,0 l/m 4,4 km/h N 9,1 C 17,0 C 12,5 km/h
06.09.2012 20:00 16,3 C 60 % 1024,1 hPa 0,0 l/m 3,2 km/h N 8,6 C 16,3 C 9,6 km/h
06.09.2012 21:00 15,3 C 62 % 1024,6 hPa 0,0 l/m 2,0 km/h N 8,0 C 15,3 C 8,9 km/h
06.09.2012 22:00 14,1 C 67 % 1025,0 hPa 0,0 l/m 0,1 km/h N 8,1 C 14,1 C 2,4 km/h
06.09.2012 23:00 12,3 C 76 % 1025,2 hPa 0,0 l/m 0,1 km/h N 8,1 C 12,3 C 2,4 km/h
07.09.2012 00:00 12,4 C 75 % 1025,3 hPa 0,0 l/m 0,4 km/h N 8,1 C 12,4 C 4,4 km/h
07.09.2012 01:00 11,8 C 75 % 1025,3 hPa 0,0 l/m 0,0 km/h N 7,4 C 11,8 C 0,0 km/h
07.09.2012 02:00 10,4 C 80 % 1025,1 hPa 0,0 l/m 0,0 km/h N 7,0 C 10,4 C 0,0 km/h
07.09.2012 03:00 10,3 C 83 % 1024,8 hPa 0,0 l/m 0,1 km/h N 7,5 C 10,3 C 1,6 km/h
07.09.2012 04:00 9,8 C 83 % 1024,6 hPa 0,0 l/m 0,0 km/h N 7,0 C 9,8 C 0,0 km/h
07.09.2012 05:00 8,8 C 83 % 1024,7 hPa 0,0 l/m 0,0 km/h N 6,1 C 8,8 C 0,0 km/h
07.09.2012 06:00 8,5 C 83 % 1024,9 hPa 0,0 l/m 0,0 km/h N 5,8 C 8,5 C 0,0 km/h
07.09.2012 07:00 9,0 C 82 % 1025,1 hPa 0,0 l/m 0,0 km/h N 6,1 C 9,0 C 0,0 km/h
07.09.2012 08:00 11,5 C 80 % 1025,1 hPa 0,0 l/m 0,0 km/h N 8,1 C 11,5 C 0,8 km/h
07.09.2012 09:00 15,5 C 77 % 1025,0 hPa 0,0 l/m 1,7 km/h N 11,3 C 15,5 C 7,6 km/h
07.09.2012 10:00 19,0 C 65 % 1024,7 hPa 0,0 l/m 1,2 km/h N 12,3 C 19,0 C 7,2 km/h
07.09.2012 11:00 20,0 C 55 % 1024,3 hPa 0,0 l/m 9,4 km/h N 10,7 C 18,9 C 22,5 km/h
07.09.2012 12:00 21,0 C 50 % 1023,6 hPa 0,0 l/m 7,1 km/h N 10,2 C 20,7 C 20,5 km/h
07.09.2012 13:00 21,7 C 46 % 1022,9 hPa 0,0 l/m 9,1 km/h N 9,6 C 20,7 C 22,9 km/h
07.09.2012 14:00 22,3 C 42 % 1022,4 hPa 0,0 l/m 9,0 km/h N 8,6 C 21,5 C 22,5 km/h
07.09.2012 15:00 22,4 C 44 % 1021,8 hPa 0,0 l/m 9,1 km/h N 9,6 C 21,6 C 23,3 km/h
07.09.2012 16:00 22,5 C 45 % 1021,5 hPa 0,0 l/m 5,1 km/h N 10,0 C 22,5 C 16,5 km/h
07.09.2012 17:00 22,8 C 44 % 1021,3 hPa 0,0 l/m 4,8 km/h N 9,9 C 22,8 C 17,3 km/h
07.09.2012 18:00 22,0 C 47 % 1021,1 hPa 0,0 l/m 3,6 km/h N 10,0 C 22,0 C 15,7 km/h
07.09.2012 19:00 20,6 C 52 % 1021,0 hPa 0,0 l/m 3,2 km/h N 10,3 C 20,6 C 13,3 km/h
07.09.2012 20:00 19,4 C 56 % 1021,1 hPa 0,0 l/m 1,5 km/h N 10,5 C 19,4 C 7,7 km/h
07.09.2012 21:00 19,8 C 61 % 1021,3 hPa 0,0 l/m 5,2 km/h N 12,0 C 19,8 C 17,3 km/h
07.09.2012 22:00 19,6 C 61 % 1021,5 hPa 0,0 l/m 4,9 km/h N 11,9 C 19,6 C 15,7 km/h
07.09.2012 23:00 19,6 C 61 % 1021,5 hPa 0,0 l/m 5,3 km/h N 11,9 C 19,5 C 16,1 km/h
08.09.2012 00:00 19,3 C 62 % 1021,1 hPa 0,0 l/m 5,2 km/h N 11,8 C 19,3 C 19,3 km/h
08.09.2012 01:00 19,3 C 62 % 1021,0 hPa 0,0 l/m 3,8 km/h N 11,7 C 19,3 C 15,3 km/h
08.09.2012 02:00 19,4 C 59 % 1021,1 hPa 0,0 l/m 5,6 km/h N 11,0 C 19,4 C 18,1 km/h
08.09.2012 03:00 19,5 C 58 % 1021,1 hPa 0,0 l/m 4,2 km/h N 10,9 C 19,5 C 15,3 km/h
08.09.2012 04:00 18,6 C 61 % 1020,9 hPa 0,0 l/m 1,6 km/h N 11,0 C 18,6 C 9,3 km/h
08.09.2012 05:00 18,6 C 60 % 1020,9 hPa 0,0 l/m 4,5 km/h N 10,7 C 18,6 C 12,5 km/h
08.09.2012 06:00 19,0 C 59 % 1020,8 hPa 0,0 l/m 5,7 km/h N 10,8 C 19,0 C 17,7 km/h
08.09.2012 07:00 19,6 C 59 % 1021,1 hPa 0,0 l/m 6,3 km/h N 11,2 C 19,5 C 18,9 km/h
08.09.2012 08:00 20,5 C 58 % 1021,2 hPa 0,0 l/m 5,7 km/h N 11,9 C 20,5 C 19,3 km/h
08.09.2012 09:00 21,5 C 54 % 1021,1 hPa 0,0 l/m 7,9 km/h N 11,8 C 21,0 C 20,5 km/h
08.09.2012 10:00 22,3 C 50 % 1021,1 hPa 0,0 l/m 9,6 km/h N 11,2 C 21,2 C 25,4 km/h
08.09.2012 11:00 24,1 C 44 % 1020,6 hPa 0,0 l/m 8,1 km/h N 11,0 C 23,7 C 20,1 km/h
08.09.2012 12:00 25,0 C 38 % 1020,2 hPa 0,0 l/m 9,4 km/h N 9,7 C 24,3 C 23,3 km/h
08.09.2012 13:00 25,4 C 41 % 1019,5 hPa 0,0 l/m 9,1 km/h N 11,3 C 24,8 C 21,3 km/h
08.09.2012 14:00 25,9 C 42 % 1019,1 hPa 0,0 l/m 7,8 km/h N 11,9 C 25,6 C 19,7 km/h
08.09.2012 15:00 25,8 C 43 % 1018,6 hPa 0,0 l/m 7,1 km/h N 12,2 C 25,6 C 19,3 km/h
08.09.2012 16:00 25,9 C 41 % 1018,3 hPa 0,0 l/m 6,2 km/h N 11,5 C 25,8 C 17,7 km/h
08.09.2012 17:00 25,6 C 41 % 1017,9 hPa 0,0 l/m 4,2 km/h N 11,3 C 25,6 C 13,7 km/h
08.09.2012 18:00 25,0 C 44 % 1017,8 hPa 0,0 l/m 1,4 km/h N 11,9 C 25,0 C 6,8 km/h
08.09.2012 19:00 23,1 C 49 % 1017,8 hPa 0,0 l/m 0,0 km/h N 11,8 C 23,1 C 2,4 km/h
08.09.2012 20:00 20,5 C 54 % 1018,4 hPa 0,0 l/m 0,1 km/h N 10,7 C 20,5 C 2,0 km/h
08.09.2012 21:00 19,5 C 54 % 1018,8 hPa 0,0 l/m 0,0 km/h N 9,8 C 19,5 C 0,8 km/h
08.09.2012 22:00 18,7 C 58 % 1018,9 hPa 0,0 l/m 0,0 km/h N 10,3 C 18,7 C 0,4 km/h
08.09.2012 23:00 18,1 C 61 % 1019,1 hPa 0,0 l/m 0,2 km/h N 10,3 C 18,1 C 2,8 km/h
09.09.2012 00:00 16,8 C 66 % 1019,3 hPa 0,0 l/m 0,0 km/h N 10,3 C 16,8 C 0,0 km/h
09.09.2012 01:00 15,3 C 72 % 1019,5 hPa 0,0 l/m 0,0 km/h N 10,3 C 15,3 C 0,4 km/h
09.09.2012 02:00 14,4 C 76 % 1019,6 hPa 0,0 l/m 0,0 km/h N 10,2 C 14,4 C 0,4 km/h
09.09.2012 03:00 13,9 C 78 % 1019,5 hPa 0,0 l/m 0,0 km/h N 10,1 C 13,9 C 0,8 km/h
09.09.2012 04:00 13,7 C 79 % 1019,6 hPa 0,0 l/m 0,0 km/h N 10,1 C 13,7 C 1,6 km/h
09.09.2012 05:00 13,4 C 79 % 1019,9 hPa 0,0 l/m 0,0 km/h N 9,9 C 13,4 C 0,8 km/h
09.09.2012 06:00 13,1 C 81 % 1020,0 hPa 0,0 l/m 0,0 km/h N 9,9 C 13,1 C 2,0 km/h
09.09.2012 07:00 13,0 C 82 % 1020,4 hPa 0,0 l/m 0,0 km/h N 10,0 C 13,0 C 0,4 km/h
09.09.2012 08:00 15,3 C 79 % 1020,6 hPa 0,0 l/m 0,0 km/h N 11,7 C 15,3 C 1,2 km/h
09.09.2012 09:00 20,0 C 67 % 1020,5 hPa 0,0 l/m 0,1 km/h N 13,6 C 20,0 C 3,2 km/h
09.09.2012 10:00 23,5 C 55 % 1020,6 hPa 0,0 l/m 1,1 km/h N 13,9 C 23,5 C 7,2 km/h
09.09.2012 11:00 25,1 C 51 % 1020,2 hPa 0,0 l/m 1,8 km/h N 14,2 C 25,1 C 12,1 km/h
09.09.2012 12:00 26,1 C 49 % 1019,7 hPa 0,0 l/m 2,7 km/h N 14,4 C 26,1 C 11,3 km/h
09.09.2012 13:00 27,1 C 47 % 1019,2 hPa 0,0 l/m 3,0 km/h N 14,8 C 27,1 C 13,3 km/h
09.09.2012 14:00 27,5 C 45 % 1018,7 hPa 0,0 l/m 3,8 km/h N 14,3 C 27,5 C 16,9 km/h
09.09.2012 15:00 26,9 C 46 % 1017,9 hPa 0,0 l/m 3,5 km/h N 14,4 C 26,9 C 15,7 km/h
09.09.2012 16:00 26,7 C 46 % 1017,4 hPa 0,0 l/m 3,3 km/h N 14,2 C 26,7 C 13,3 km/h
09.09.2012 17:00 26,4 C 47 % 1017,0 hPa 0,0 l/m 3,3 km/h N 14,0 C 26,4 C 14,1 km/h
09.09.2012 18:00 26,0 C 47 % 1016,8 hPa 0,0 l/m 2,6 km/h N 13,6 C 26,0 C 13,7 km/h
09.09.2012 19:00 24,6 C 49 % 1016,6 hPa 0,0 l/m 0,2 km/h N 13,1 C 24,6 C 4,0 km/h
09.09.2012 20:00 21,5 C 58 % 1016,9 hPa 0,0 l/m 0,0 km/h N 12,9 C 21,5 C 0,0 km/h
09.09.2012 21:00 18,4 C 70 % 1017,0 hPa 0,0 l/m 0,0 km/h N 12,7 C 18,4 C 0,0 km/h
09.09.2012 22:00 16,6 C 77 % 1017,0 hPa 0,0 l/m 0,0 km/h N 12,5 C 16,6 C 0,4 km/h
09.09.2012 23:00 15,4 C 80 % 1016,9 hPa 0,0 l/m 0,0 km/h N 11,9 C 15,4 C 0,0 km/h
Min-Datum _ 07.09.12 08.09.12 05.09.12 - 03.09.12 - 07.09.12 07.09.12 03.09.12
_ Min-Zeit 06:15 12:15 17:00 - 00:00 - 06:00 06:00 00:00
Minimum _ 8,4 C 36 % 1013,9 hPa - 0,0 km/h - 5,7 C 8,4 C 0,0 km/h
Max-Datum _ 09.09.12 07.09.12 07.09.12 03.09.12 06.09.12 - 03.09.12 09.09.12 06.09.12
_ Max-Zeit 14:30 03:00 01:00 00:00 16:30 - 14:45 14:30 16:30
Maximum _ 27,6 C 83 % 1025,4 hPa 0,0 l/m 14,2 km/h
N
- 17,8 C 27,6 C 32,2 km/h
N
Durchschnitt _ 19,6 C 67 % 1019,5 hPa #0,0 l/m 3,7 km/h N 13,0 C 19,4 C 11,4 km/h